• Join FlightAware (Why Join?)
  • Login
  • US Flag 
04:45PM EST


 

Airport Tracker/Info


-or-


 

Live Flight TrackerFlight Track Log ✈ AAY875 ✈ 13-Apr-2014 ✈ KBGR - KPIE

Flight Track Log - Related Links

Times and Time Zones

All times are in EDT time to prevent confusion due to time zone crossing. See the AAY875 flight status page for this flight to view local times or setup timezone preferences in your user account.

Time Position Orientation Groundspeed Altitude Reporting Facility
EDT Latitude Longitude Course Direction KTS MPH feet Rate Location/Type
05:00PM 44.7508 -68.7922 240° Southwest 189 217 3,100  Level Boston Center
05:01PM 44.7183 -68.8689 239° Southwest 230 265 6,600 2,951 Climbing Boston Center
05:02PM 44.6822 -68.9450 236° Southwest 230 265 9,100 2,164 Climbing Boston Center
05:03PM 44.6483 -69.0319 241° Southwest 248 285 11,000 1,415 Climbing Boston Center
05:04PM 44.5875 -69.1233 227° Southwest 317 365 12,000 1,512 Climbing Boston Center
05:05PM 44.5206 -69.2264 228° Southwest 348 400 14,100 2,049 Climbing Boston Center
05:06PM 44.4500 -69.3333 227° Southwest 363 418 16,200 1,951 Climbing Boston Center
05:07PM 44.3717 -69.4439 225° Southwest 391 450 18,100 1,721 Climbing Boston Center
05:08PM 44.3534 -70.0520 240° Southwest  Level FlightAware Approximate
05:08PM 44.2939 -69.5561 226° Southwest 393 452 19,700  Level Boston Center
05:09PM 44.1972 -69.6944 226° Southwest 408 470 21,600 1,756 Climbing Boston Center
05:10PM 44.1150 -69.8114 226° Southwest 414 476 23,300 1,770 Climbing Boston Center
05:11PM 44.0339 -69.9319 227° Southwest 422 486 25,200 1,659 Climbing Boston Center
05:12PM 43.9522 -70.0442 225° Southwest 415 478 26,700 1,463 Climbing Boston Center
05:13PM 43.8686 -70.1561 224° Southwest 416 479 28,200 1,171 Climbing Boston Center
05:14PM 43.7892 -70.2694 226° Southwest 410 472 29,100 976 Climbing Boston Center
05:15PM 43.7106 -70.3878 227° Southwest 412 474 30,200 1,082 Climbing Boston Center
05:16PM 43.6306 -70.4972 225° Southwest 404 465 31,300 878 Climbing Boston Center
05:17PM 43.5481 -70.6072 224° Southwest 405 466 32,000 341 Climbing Boston Center
05:18PM 43.4672 -70.7169 225° Southwest 406 467 32,000  Level Boston Center
05:19PM 43.3811 -70.8347 225° Southwest 409 471 32,000  Level Boston Center
05:20PM 43.3039 -70.9428 226° Southwest 406 467 32,000  Level Boston Center
05:21PM 43.2244 -71.0514 225° Southwest 406 467 32,000  Level Boston Center
05:22PM 43.1431 -71.1597 224° Southwest 406 467 32,000  Level Boston Center
05:23PM 43.0461 -71.2942 225° Southwest 413 475 32,000  Level Boston Center
05:24PM 42.9672 -71.4011 225° Southwest 407 468 32,000  Level Boston Center
05:25PM 42.8886 -71.5069 225° Southwest 403 464 32,000  Level Boston Center
05:26PM 42.8097 -71.6106 224° Southwest 404 465 32,000  Level Boston Center
05:27PM 42.7297 -71.7172 224° Southwest 402 463 32,000  Level Boston Center
05:28PM 42.6522 -71.8219 225° Southwest 402 463 32,000  Level Boston Center
05:29PM 42.5728 -71.9275 224° Southwest 401 461 32,000  Level Boston Center
05:31PM 42.4917 -72.0342 224° Southwest 402 463 32,000  Level Boston Center
05:33PM 42.3147 -72.2622 224° Southwest 401 461 32,000  Level Boston Center
05:34PM 42.2344 -72.3661 224° Southwest 400 460 32,000  Level Boston Center
06:11PM 39.3925 -76.5022 221° Southwest 424 488 32,000  Level Washington Center
06:13PM 39.2325 -76.7539 220° Southwest 426 490 32,000  Level Washington Center
06:14PM 39.1815 -76.8196 229° Southwest  Level FlightAware Approximate
06:14PM 39.1558 -76.8722 230° Southwest 426 490 32,000  Level Washington Center
06:15PM 39.1073 -76.9309 229° Southwest  Level FlightAware Approximate
06:15PM 39.0800 -76.9889 230° Southwest 425 489 32,000  Level Washington Center
06:16PM 39.0302 -77.0382 220° Southwest  Level FlightAware Approximate
06:16PM 38.9936 -77.0969 224° Southwest 429 494 32,000  Level Washington Center
06:17PM 38.9495 -77.1256 220° Southwest  Level FlightAware Approximate
06:17PM 38.9431 -77.1325 220° Southwest  Level FlightAware Approximate
06:17PM 38.9003 -77.1978 220° Southwest 432 497 32,000  Level Washington Center
06:18PM 38.8560 -77.2265 220° Southwest  Level FlightAware Approximate
06:18PM 38.8067 -77.2961 219° Southwest 432 497 32,000  Level Washington Center
06:19PM 38.7688 -77.3204 220° Southwest  Level FlightAware Approximate
06:19PM 38.7144 -77.3978 221° Southwest 432 497 32,000  Level Washington Center
06:20PM 38.6815 -77.4139 220° Southwest  Level FlightAware Approximate
06:20PM 38.6019 -77.5219 221° Southwest 435 501 32,000  Level Washington Center
06:21PM 38.5944 -77.5077 221° Southwest  Level FlightAware Approximate
06:21PM 38.5083 -77.6256 221° Southwest 440 506 32,000  Level Washington Center
06:22PM 38.4147 -77.7261 220° Southwest 439 505 32,000  Level Washington Center
06:23PM 38.3214 -77.8253 220° Southwest 439 505 32,000  Level Washington Center
06:24PM 38.2283 -77.9225 219° Southwest 435 501 32,000  Level Washington Center
06:25PM 38.1361 -78.0231 221° Southwest 435 501 32,000  Level Washington Center
06:26PM 38.0439 -78.1233 221° Southwest 436 502 32,000  Level Washington Center
06:27PM 37.9292 -78.2361 218° Southwest 442 509 32,000  Level Washington Center
06:28PM 37.8342 -78.3247 216° Southwest 440 506 32,000  Level Washington Center
06:29PM 37.7381 -78.4139 216° Southwest 440 506 32,000  Level Washington Center
06:30PM 37.6256 -78.5233 218° Southwest 438 504 32,000  Level Washington Center
06:31PM 37.5311 -78.6133 217° Southwest 438 504 32,000  Level Washington Center
06:32PM 37.4356 -78.7025 217° Southwest 438 504 32,000  Level Washington Center
06:34PM 37.3406 -78.7897 216° Southwest 437 503 32,000  Level Washington Center
06:35PM 37.2261 -78.8969 217° Southwest 437 503 32,000  Level Washington Center
06:36PM 37.1317 -78.9856 217° Southwest 436 502 32,000  Level Washington Center
06:37PM 37.0364 -79.0761 217° Southwest 436 502 32,000  Level Washington Center
06:38PM 36.9225 -79.1819 217° Southwest 436 502 32,000  Level Washington Center
06:39PM 36.8275 -79.2667 216° Southwest 434 499 32,000  Level Washington Center
06:40PM 36.7333 -79.3522 216° Southwest 429 494 32,000  Level Washington Center
06:41PM 36.6389 -79.4389 216° Southwest 429 494 32,000  Level Washington Center
06:42PM 36.5264 -79.5456 217° Southwest 434 499 32,000  Level Washington Center
06:43PM 36.4319 -79.6289 215° Southwest 432 497 32,000  Level Washington Center
06:44PM 36.3486 -79.7003 215° Southwest 431 496 32,000  Level Atlanta Center
06:45PM 36.2375 -79.7992 216° Southwest 437 503 32,000  Level Atlanta Center
06:46PM 36.1425 -79.8864 217° Southwest 437 503 32,000  Level Atlanta Center
06:47PM 36.0431 -79.9711 215° Southwest 437 503 32,000  Level Atlanta Center
06:48PM 35.9325 -80.0331 204° Southwest 437 503 32,000  Level Atlanta Center
06:49PM 35.8297 -80.0817 201° Southwest 437 503 32,000  Level Atlanta Center
06:50PM 35.7147 -80.1383 202° Southwest 447 514 32,000  Level Atlanta Center
06:51PM 35.5997 -80.1975 203° Southwest 447 514 32,000  Level Atlanta Center
06:52PM 35.4847 -80.2589 203° Southwest 447 514 32,000  Level Atlanta Center
06:53PM 35.3656 -80.3178 202° Southwest 452 520 32,000  Level Atlanta Center
06:54PM 35.1814 -80.4092 202° Southwest 453 521 32,000  Level Washington Center
06:55PM 35.0639 -80.4661 202° Southwest 453 521 32,000  Level Washington Center
06:56PM 34.9344 -80.5300 202° Southwest 452 520 32,000  Level Jacksonville Center
06:57PM 34.8189 -80.5889 203° Southwest 452 520 32,000  Level Jacksonville Center
06:58PM 34.6947 -80.6528 203° Southwest 446 513 32,000  Level Jacksonville Center
06:59PM 34.5811 -80.7061 201° Southwest 464 534 32,000  Level Jacksonville Center
07:00PM 34.4672 -80.7544 199° South 463 533 32,000  Level Jacksonville Center
07:01PM 34.3472 -80.8228 205° Southwest 463 533 32,000  Level Jacksonville Center
07:02PM 34.2253 -80.8808 201° Southwest 440 506 32,000  Level Jacksonville Center
07:03PM 34.1114 -80.9361 202° Southwest 440 506 32,000  Level Jacksonville Center
07:04PM 33.9911 -80.9939 202° Southwest 452 520 32,000  Level Jacksonville Center
07:05PM 33.8792 -81.0439 200° South 447 514 32,000  Level Jacksonville Center
07:06PM 33.7631 -81.1014 202° Southwest 447 514 32,000  Level Jacksonville Center
07:07PM 33.6472 -81.1611 203° Southwest 452 520 32,000  Level Jacksonville Center
07:08PM 33.5311 -81.2181 202° Southwest 452 520 32,000  Level Jacksonville Center
07:09PM 33.4169 -81.2750 203° Southwest 452 520 32,000  Level Jacksonville Center
07:10PM 33.2989 -81.3319 202° Southwest 452 520 32,000  Level Jacksonville Center
07:11PM 33.1825 -81.3886 202° Southwest 452 520 32,000 -50 Level Jacksonville Center
07:12PM 33.0683 -81.4450 202° Southwest 452 520 31,900  Descending Jacksonville Center
07:13PM 32.9522 -81.4989 201° Southwest 452 520 32,000 50 Climbing Jacksonville Center
07:14PM 32.8358 -81.5550 202° Southwest 452 520 32,000  Level Jacksonville Center
07:15PM 32.7217 -81.6111 202° Southwest 452 520 32,000  Level Jacksonville Center
07:16PM 32.6094 -81.6644 202° Southwest 447 514 32,000  Level Jacksonville Center
07:17PM 32.4992 -81.6931 192° South 447 514 32,000  Level Jacksonville Center
07:18PM 32.3617 -81.7219 190° South 452 520 32,000  Level Jacksonville Center
07:19PM 32.2428 -81.7481 191° South 447 514 32,000  Level Jacksonville Center
07:20PM 32.1303 -81.7789 193° South 452 520 32,000  Level Jacksonville Center
07:21PM 31.9928 -81.8122 192° South 452 520 32,000  Level Jacksonville Center
07:22PM 31.8803 -81.8356 190° South 463 533 32,000  Level Jacksonville Center
07:23PM 31.7406 -81.8689 191° South 468 539 32,000  Level Jacksonville Center
07:24PM 31.6178 -81.8972 191° South 468 539 32,000  Level Jacksonville Center
07:25PM 31.5031 -81.9253 192° South 468 539 32,000  Level Jacksonville Center
07:26PM 31.3656 -81.9558 191° South 461 531 32,000  Level Jacksonville Center
07:27PM 31.2383 -81.9864 192° South 467 537 32,000  Level Jacksonville Center
07:28PM 31.1133 -82.0167 192° South 467 537 32,000  Level Jacksonville Center
07:29PM 30.9903 -82.0444 191° South 467 537 32,000  Level Jacksonville Center
07:30PM 30.8631 -82.0722 191° South 467 537 32,000  Level Jacksonville Center
07:31PM 30.7381 -82.1022 192° South 467 537 32,000  Level Jacksonville Center
07:32PM 30.6150 -82.1297 191° South 467 537 32,000  Level Jacksonville Center
07:33PM 30.4878 -82.1550 190° South 467 537 32,000  Level Jacksonville Center
07:34PM 30.3628 -82.1825 191° South 467 537 32,000  Level Jacksonville Center
07:35PM 30.2356 -82.2097 190° South 467 537 32,000  Level Jacksonville Center
07:36PM 30.1125 -82.2394 192° South 467 537 32,000  Level Jacksonville Center
07:37PM 29.9853 -82.2714 192° South 467 537 32,000 -50 Level Jacksonville Center
07:38PM 29.8706 -82.2986 192° South 474 545 31,900 -1,250 Descending Jacksonville Center
07:39PM 29.7328 -82.3233 189° South 468 539 29,500 -2,250 Descending Jacksonville Center
07:40PM 29.6097 -82.3528 192° South 463 533 27,400 -1,750 Descending Jacksonville Center
07:41PM 29.4886 -82.3439 176° South 438 504 26,000 -900 Descending Jacksonville Center
07:42PM 29.3842 -82.3231 170° South 438 504 25,600 -1,250 Descending Jacksonville Center
07:43PM 29.2714 -82.2903 166° South 432 497 23,500 -2,350 Descending Jacksonville Center
07:44PM 29.1647 -82.2694 170° South 413 475 20,900 -2,550 Descending Jacksonville Center
07:45PM 29.0644 -82.2631 177° South 386 444 18,400 -2,350 Descending Jacksonville Center
07:46PM 28.9664 -82.2661 182° South 364 419 16,200 -2,100 Descending Jacksonville Center
07:47PM 28.8725 -82.2642 179° South 352 405 14,200 -1,129 Descending Jacksonville Center
07:49PM 28.7000 -82.2667 181° South 304 350 13,000 -784 Descending Tampa TRACON
07:50PM 28.6000 -82.2500 172° South 312 359 11,900 -1,000 Descending Tampa TRACON
07:51PM 28.5500 -82.3333 236° Southwest 330 380 10,800 -594 Descending Tampa TRACON
07:53PM 28.5000 -82.5333 156° South 282 325 10,000 -645 Descending Tampa TRACON
07:54PM 28.4500 -82.5833 221° Southwest 277 319 8,800 -1,250 Descending Tampa TRACON
07:55PM 28.3833 -82.6500 221° Southwest 267 307 7,500 -1,600 Descending Tampa TRACON
07:56PM 28.3167 -82.6833 204° Southwest 268 308 5,600 -1,714 Descending Tampa TRACON
07:58PM 28.2500 -82.7167 204° Southwest 271 312 3,900 -1,190 Descending Tampa TRACON
07:59PM 28.1833 -82.7333 192° South 255 293 3,100 -429 Descending Tampa TRACON
08:00PM 28.1000 -82.7167 170° South 229 264 3,000 -333 Descending Tampa TRACON
08:01PM 28.0500 -82.7167 180° South 202 232 2,400 -800 Descending Tampa TRACON
08:02PM 28.0000 -82.7000 164° South 181 208 1,400 -882 Descending Tampa TRACON
08:02PM 27.9667 -82.7000 180° South 123 142 900 -625 Descending Tampa TRACON
08:03PM 27.9333 -82.7000 180° South 118 136 400 -556 Descending Tampa TRACON
08:05PM 27.9100 -82.6875 172° South  Level Estimated
08:12PM 27.9100 -82.6875 North  Level Estimated
08:13PM 27.9100 -82.6875 172° South  Level Estimated